Ruby, VA

6:07 PM EDT on September 04, 2015 (GMT -0400)
Windsor Forest | | Change Station
CLOSE
Current Station
Personal Weather Station
Location: Stafford, VA
Elevation: 308 ft
Nearby Weather Stations

Elev 308 ft 38.49 °N, 77.52 °W | Updated 2 minutes ago

Rain
Rain
77.0 °F
Feels Like 79 °F
N
0.0
Wind Variable Wind from WSW
Gusts 0.0 mph

Today
High -- | Low -- °F
--% Chance of Precip.
Yesterday
High -- | Low -- °F
Precip. -- in
6:41 AM 7:35 PM
Waning Gibbous, 55% visible
Pressure 30.07 in
Visibility 10.0 miles
Clouds Clear
Heat Index 79 °F
Dew Point 67 °F
Humidity 72%
Rainfall 0.00 in
Snow Depth Not available.
UV 1.0 out of 12
Pollen 7.30 out of 12
Air Quality Not available.
Flu Activity Not available.
METAR KRMN 042155Z AUTO 00000KT 10SM CLR 27/20 A3007 RMK AO2 LTG DSNT SW T02720200
Pressure 30.07 in
Visibility 10.0 miles
Clouds Clear
Heat Index 79 °F
Dew Point 67 °F
Humidity 72%
Rainfall 0.00 in
Snow Depth Not available.
UV 1.0 out of 12
Pollen 7.30 out of 12
Air Quality Not available.
Flu Activity Not available.
METAR KRMN 042155Z AUTO 00000KT 10SM CLR 27/20 A3007 RMK AO2 LTG DSNT SW T02720200

10-Day Weather Forecast

×

Almanac

Astronomy

Sep. 04, 2015 Rise Set
Actual Time
Civil Twilight
Nautical Twilight
Astronomical Twilight
Moon
Length of Visible Light
Length of Day
Tomorrow will be .
, % of the Moon is Illuminated

Today's Extremes

State Highs State Lows

Community

WunderPhotos

Upload Photos

1,852,305 photos uploaded!

WunderBlogs® & News

Nearby

Air Quality

  Air Quality AQ Index Pollutant
Not available.

Snow Depth

Station Depth Elevation

Earthquake Activity

City Distance Mag. Time & Date
Minimum magnitude displayed is 2.5.

Coastal Water Temperatures

Place Temperature

Stations

Nearby Weather Stations

Station Location Temp. Windchill Dew Point Humidity Wind Precip. Elev Updated Type